createdAt,value
2019-05-03T00:02:28.412Z,8.80
2019-05-03T00:07:32.312Z,8.80
2019-05-03T00:12:36.057Z,8.80
2019-05-03T00:17:39.492Z,8.80
2019-05-03T00:22:43.464Z,8.90
2019-05-03T00:27:47.340Z,8.90
2019-05-03T00:32:52.149Z,8.80
2019-05-03T00:37:57.588Z,8.90
2019-05-03T00:43:02.298Z,9.00
2019-05-03T00:48:06.258Z,9.00
2019-05-03T00:53:11.711Z,9.00
2019-05-03T00:58:15.980Z,9.00
2019-05-03T01:03:19.487Z,9.10
2019-05-03T01:08:23.103Z,9.00
2019-05-03T01:13:27.021Z,9.00
2019-05-03T01:18:32.282Z,9.10
2019-05-03T01:23:35.897Z,9.00
2019-05-03T01:28:39.382Z,9.00
2019-05-03T01:33:43.225Z,9.00
2019-05-03T01:38:47.109Z,9.00
2019-05-03T01:43:52.428Z,9.00
2019-05-03T01:49:14.143Z,8.90
2019-05-03T01:54:17.557Z,9.00
2019-05-03T01:59:22.722Z,9.00
2019-05-03T02:04:35.888Z,8.90
2019-05-03T02:09:41.577Z,8.80
2019-05-03T02:14:44.616Z,8.90
2019-05-03T02:19:47.935Z,8.80
2019-05-03T02:24:52.634Z,8.90
2019-05-03T02:29:56.184Z,8.70
2019-05-03T02:35:02.547Z,8.80
2019-05-03T02:40:06.947Z,8.80
2019-05-03T02:45:18.461Z,8.80
2019-05-03T02:50:22.190Z,8.80
2019-05-03T02:55:26.398Z,8.80
2019-05-03T03:01:02.566Z,8.70
2019-05-03T03:06:07.970Z,8.70
2019-05-03T03:11:11.742Z,8.70
2019-05-03T03:16:18.668Z,8.80
2019-05-03T03:21:26.037Z,8.80
2019-05-03T03:26:39.318Z,8.80
2019-05-03T03:32:19.363Z,8.90
2019-05-03T03:37:25.971Z,8.90
2019-05-03T03:42:31.338Z,8.80
2019-05-03T03:47:38.737Z,8.70
2019-05-03T03:52:45.167Z,8.70
2019-05-03T03:57:48.860Z,8.70
2019-05-03T04:02:55.253Z,8.80
2019-05-03T04:07:59.581Z,8.70
2019-05-03T04:13:05.277Z,8.70
2019-05-03T04:18:37.210Z,8.80
2019-05-03T04:23:42.185Z,8.80
2019-05-03T04:28:46.796Z,8.80
2019-05-03T04:33:50.482Z,8.80
2019-05-03T04:38:56.192Z,8.90
2019-05-03T04:43:59.584Z,8.90
2019-05-03T04:49:05.765Z,8.90
2019-05-03T04:54:26.810Z,8.90
2019-05-03T04:59:31.038Z,9.00
2019-05-03T05:04:35.778Z,9.10
2019-05-03T05:09:39.770Z,9.10
2019-05-03T05:14:45.667Z,9.20
2019-05-03T05:20:05.357Z,9.20
2019-05-03T05:25:14.781Z,9.20
2019-05-03T05:30:18.170Z,9.20
2019-05-03T05:35:21.740Z,9.30
2019-05-03T05:40:25.809Z,9.40
2019-05-03T05:45:29.719Z,9.50
2019-05-03T05:50:38.994Z,9.50
2019-05-03T05:56:05.041Z,9.70
2019-05-03T06:01:17.053Z,9.80
2019-05-03T06:06:42.434Z,10.00
2019-05-03T06:11:55.365Z,10.20
2019-05-03T06:17:21.126Z,10.30
2019-05-03T06:22:46.538Z,10.40
2019-05-03T06:27:50.136Z,10.40
2019-05-03T06:32:55.095Z,10.60
2019-05-03T06:37:59.063Z,10.50
2019-05-03T06:43:09.218Z,10.60
2019-05-03T06:48:08.183Z,10.70
2019-05-03T06:53:12.980Z,11.00
2019-05-03T06:58:30.380Z,10.90
2019-05-03T07:03:28.919Z,11.00
2019-05-03T07:09:10.026Z,10.90
2019-05-03T07:14:15.424Z,10.90
2019-05-03T07:19:19.225Z,10.90
2019-05-03T07:24:24.799Z,11.00
2019-05-03T07:29:28.081Z,11.20
2019-05-03T07:34:31.576Z,11.30
2019-05-03T07:39:35.297Z,11.40
2019-05-03T07:44:38.721Z,11.60
2019-05-03T07:49:44.555Z,11.90
2019-05-03T07:54:48.064Z,12.10
2019-05-03T07:59:51.845Z,12.30
2019-05-03T08:04:55.533Z,12.10
2019-05-03T08:09:59.410Z,12.10
2019-05-03T08:15:05.267Z,12.00
2019-05-03T08:20:09.756Z,12.00
2019-05-03T08:25:14.621Z,12.00
2019-05-03T08:30:25.057Z,12.00
2019-05-03T08:35:41.145Z,11.80
2019-05-03T08:40:47.380Z,11.70
2019-05-03T08:45:51.128Z,11.40
2019-05-03T08:50:55.437Z,11.40
2019-05-03T08:55:59.699Z,11.50
2019-05-03T09:01:05.575Z,11.40
2019-05-03T09:06:09.564Z,11.30
2019-05-03T09:11:15.609Z,11.10
2019-05-03T09:16:19.443Z,11.00
2019-05-03T09:21:25.237Z,11.30
2019-05-03T09:26:29.665Z,11.30
2019-05-03T09:31:35.122Z,11.40
2019-05-03T09:36:39.060Z,11.30
2019-05-03T09:41:42.476Z,11.10
2019-05-03T09:46:46.573Z,11.00
2019-05-03T09:51:49.911Z,11.00
2019-05-03T09:57:00.673Z,10.90
2019-05-03T10:02:05.051Z,11.30
2019-05-03T10:07:08.975Z,11.40
2019-05-03T10:12:16.962Z,11.30
2019-05-03T10:17:52.285Z,11.50
2019-05-03T10:22:59.371Z,11.60
2019-05-03T10:28:05.651Z,11.80
2019-05-03T10:33:17.516Z,12.10
2019-05-03T10:38:21.341Z,12.20
2019-05-03T10:43:25.568Z,12.50
2019-05-03T10:48:29.703Z,12.70
2019-05-03T10:53:40.270Z,13.00
2019-05-03T10:58:46.100Z,13.00
2019-05-03T11:03:50.602Z,13.30
2019-05-03T11:08:54.707Z,14.20
2019-05-03T11:13:58.971Z,14.80
2019-05-03T11:19:03.038Z,14.40
2019-05-03T11:24:08.720Z,14.20
2019-05-03T11:29:12.829Z,14.20
2019-05-03T11:34:18.330Z,14.10
2019-05-03T11:39:25.062Z,14.30
2019-05-03T11:44:41.125Z,14.50
2019-05-03T11:49:45.518Z,15.00
2019-05-03T11:54:49.501Z,15.70
2019-05-03T11:59:54.815Z,16.20
2019-05-03T12:04:59.726Z,16.60
2019-05-03T12:10:13.532Z,17.00
2019-05-03T12:15:09.979Z,17.70
2019-05-03T12:20:17.043Z,17.60
2019-05-03T12:25:38.976Z,17.10
2019-05-03T12:30:44.936Z,16.90
2019-05-03T12:35:49.401Z,16.60
2019-05-03T12:40:54.575Z,15.90
2019-05-03T12:45:58.232Z,15.40
2019-05-03T12:51:02.451Z,15.80
2019-05-03T12:56:11.900Z,16.80
2019-05-03T13:01:26.407Z,16.70
2019-05-03T13:06:30.559Z,17.70
2019-05-03T13:11:36.609Z,16.80
2019-05-03T13:16:40.755Z,15.60
2019-05-03T13:21:45.091Z,14.90
2019-05-03T13:26:49.094Z,14.20
2019-05-03T13:32:00.716Z,14.10
2019-05-03T13:36:58.351Z,14.20
2019-05-03T13:42:02.317Z,14.30
2019-05-03T13:47:05.780Z,14.20
2019-05-03T13:52:09.374Z,14.10
2019-05-03T13:57:15.255Z,13.60
2019-05-03T14:02:19.275Z,13.70
2019-05-03T14:07:23.535Z,13.60
2019-05-03T14:12:26.983Z,13.40
2019-05-03T14:17:30.349Z,13.10
2019-05-03T14:22:35.797Z,12.80
2019-05-03T14:27:39.790Z,12.50
2019-05-03T14:32:45.113Z,12.40
2019-05-03T14:37:48.631Z,12.30
2019-05-03T14:42:52.533Z,12.40
2019-05-03T14:47:57.749Z,12.20
2019-05-03T14:53:01.569Z,12.20
2019-05-03T14:58:25.727Z,12.10
2019-05-03T15:03:28.460Z,12.30
2019-05-03T15:08:32.491Z,12.30
2019-05-03T15:13:35.880Z,12.30
2019-05-03T15:18:39.534Z,12.00
2019-05-03T15:23:45.323Z,11.90
2019-05-03T15:28:49.057Z,11.70
2019-05-03T15:33:55.378Z,11.80
2019-05-03T15:38:58.470Z,11.60
2019-05-03T15:44:19.982Z,11.60
2019-05-03T15:49:27.390Z,11.50
2019-05-03T15:54:30.271Z,11.40
2019-05-03T15:59:34.206Z,11.30
2019-05-03T16:04:37.829Z,11.20
2019-05-03T16:09:41.670Z,11.10
2019-05-03T16:14:45.603Z,11.20
2019-05-03T16:19:50.264Z,12.50
2019-05-03T16:24:55.654Z,12.30
2019-05-03T16:30:01.413Z,12.10
2019-05-03T16:35:05.382Z,11.70
2019-05-03T16:40:14.175Z,11.50
2019-05-03T16:45:18.558Z,11.30
2019-05-03T16:50:25.058Z,11.20
2019-05-03T16:55:30.805Z,11.20
2019-05-03T17:00:35.323Z,11.10
2019-05-03T17:05:57.321Z,11.00
2019-05-03T17:11:05.661Z,11.00
2019-05-03T17:16:12.016Z,10.90
2019-05-03T17:21:16.355Z,10.60
2019-05-03T17:26:20.247Z,10.50
2019-05-03T17:31:24.819Z,10.50
2019-05-03T17:36:10.745Z,10.40
2019-05-03T17:41:21.428Z,10.40
2019-05-03T17:46:08.248Z,10.40
2019-05-03T17:50:55.078Z,10.30
2019-05-03T17:56:15.283Z,10.20
2019-05-03T18:01:41.595Z,10.20
2019-05-03T18:06:55.587Z,10.30
2019-05-03T18:11:45.118Z,10.30
2019-05-03T18:16:31.708Z,10.20
2019-05-03T18:21:17.563Z,10.10
2019-05-03T18:26:05.323Z,10.00
2019-05-03T18:30:51.932Z,9.90
2019-05-03T18:35:38.103Z,10.10
2019-05-03T18:40:24.834Z,10.00
2019-05-03T18:45:19.507Z,9.80
2019-05-03T18:50:05.916Z,9.60
2019-05-03T18:54:51.806Z,9.60
2019-05-03T18:59:37.826Z,9.50
2019-05-03T19:04:35.751Z,9.50
2019-05-03T19:09:42.410Z,9.40
2019-05-03T19:14:40.000Z,9.40
2019-05-03T19:19:31.837Z,9.50
2019-05-03T19:24:18.572Z,9.40
2019-05-03T19:29:05.121Z,9.50
2019-05-03T19:33:51.784Z,9.40
2019-05-03T19:38:38.201Z,9.20
2019-05-03T19:43:26.991Z,9.10
2019-05-03T19:48:12.178Z,9.00
2019-05-03T19:53:17.115Z,9.00
2019-05-03T19:58:05.457Z,8.90
2019-05-03T20:03:08.155Z,8.80
2019-05-03T20:08:10.627Z,8.80
2019-05-03T20:12:56.605Z,8.80
2019-05-03T20:17:54.659Z,8.80
2019-05-03T20:22:30.402Z,8.80
2019-05-03T20:27:16.695Z,8.90
2019-05-03T20:32:02.953Z,8.80
2019-05-03T20:36:49.255Z,8.70
2019-05-03T20:41:35.257Z,8.70
2019-05-03T20:46:26.215Z,8.60
2019-05-03T20:51:15.739Z,8.50
2019-05-03T20:56:02.115Z,8.50
2019-05-03T21:00:48.170Z,8.50
2019-05-03T21:05:37.236Z,8.60
2019-05-03T21:10:22.249Z,8.50
2019-05-03T21:15:12.167Z,8.50
2019-05-03T21:20:05.942Z,8.40
2019-05-03T21:25:00.953Z,8.20
2019-05-03T21:29:55.239Z,8.20
2019-05-03T21:34:41.139Z,8.10
2019-05-03T21:39:26.995Z,8.10
2019-05-03T21:44:30.033Z,8.20
2019-05-03T21:49:18.213Z,8.20
2019-05-03T21:54:06.603Z,8.20
2019-05-03T21:58:51.478Z,8.10
2019-05-03T22:03:37.697Z,8.00
2019-05-03T22:08:24.828Z,8.00
2019-05-03T22:13:10.917Z,8.10
2019-05-03T22:18:21.077Z,8.10
2019-05-03T22:23:28.722Z,8.10
2019-05-03T22:28:15.588Z,8.10
2019-05-03T22:33:01.661Z,8.10
2019-05-03T22:37:47.391Z,8.00
2019-05-03T22:42:34.565Z,7.90
2019-05-03T22:47:20.914Z,7.80
2019-05-03T22:52:08.025Z,7.70
2019-05-03T22:56:55.570Z,7.50
2019-05-03T23:01:41.267Z,7.50
2019-05-03T23:06:27.010Z,7.40
2019-05-03T23:11:12.892Z,7.20
2019-05-03T23:15:58.723Z,7.10
2019-05-03T23:21:01.926Z,7.00
2019-05-03T23:25:47.619Z,6.80
2019-05-03T23:30:33.323Z,6.60
2019-05-03T23:35:19.093Z,6.50
2019-05-03T23:40:05.388Z,6.40
2019-05-03T23:44:51.088Z,6.50
2019-05-03T23:49:36.770Z,6.40
2019-05-03T23:54:24.546Z,6.40
2019-05-03T23:59:09.920Z,6.40
